• Join FlightAware (Why Join?)
  • Login
  • US Flag 
08:13PM EDT


 

Airport Tracker/Info


-or-


 

Live Flight TrackerFlight Track Log ✈ IBE6586 ✈ 09-May-2013 ✈ SKBO / BOG - LEMD / MAD

Flight Track Log - Related Links

Times and Time Zones

All times are in EDT time to prevent confusion due to time zone crossing. See the IBE6586 flight status page for this flight to view local times or setup timezone preferences in your user account.

Time Position Orientation Groundspeed Altitude Reporting Facility
EDT Latitude Longitude Course Direction KTS MPH feet Rate Location/Type
08:29PM 8.2871 -70.2220 54° Northeast  Level FlightAware Approximate
08:30PM 8.3695 -70.1080 54° Northeast  Level FlightAware Approximate
08:31PM 8.4519 -69.9940 54° Northeast  Level FlightAware Approximate
08:32PM 8.5342 -69.8799 54° Northeast  Level FlightAware Approximate
08:33PM 8.6165 -69.7657 54° Northeast  Level FlightAware Approximate
08:34PM 8.6988 -69.6515 54° Northeast  Level FlightAware Approximate
08:35PM 8.7811 -69.5373 54° Northeast  Level FlightAware Approximate
08:36PM 8.8633 -69.4230 54° Northeast  Level FlightAware Approximate
08:37PM 8.9455 -69.3086 54° Northeast  Level FlightAware Approximate
08:38PM 9.0276 -69.1942 54° Northeast  Level FlightAware Approximate
08:39PM 9.1097 -69.0798 54° Northeast  Level FlightAware Approximate
08:40PM 9.1918 -68.9652 54° Northeast  Level FlightAware Approximate
08:41PM 9.2738 -68.8507 54° Northeast  Level FlightAware Approximate
08:42PM 9.3558 -68.7361 54° Northeast  Level FlightAware Approximate
08:43PM 9.4378 -68.6214 54° Northeast  Level FlightAware Approximate
08:44PM 9.5197 -68.5067 54° Northeast  Level FlightAware Approximate
08:45PM 9.6016 -68.3919 54° Northeast  Level FlightAware Approximate
08:46PM 9.6834 -68.2770 54° Northeast  Level FlightAware Approximate
08:47PM 9.7653 -68.1621 54° Northeast  Level FlightAware Approximate
08:48PM 9.8470 -68.0472 54° Northeast  Level FlightAware Approximate
08:49PM 9.9288 -67.9322 54° Northeast  Level FlightAware Approximate
08:50PM 10.0105 -67.8171 54° Northeast  Level FlightAware Approximate
08:51PM 10.0921 -67.7020 54° Northeast  Level FlightAware Approximate
08:52PM 10.1737 -67.5868 54° Northeast  Level FlightAware Approximate
08:53PM 10.2553 -67.4716 54° Northeast  Level FlightAware Approximate
08:54PM 10.3368 -67.3563 54° Northeast  Level FlightAware Approximate
08:55PM 10.4183 -67.2409 54° Northeast  Level FlightAware Approximate
08:56PM 10.4998 -67.1255 54° Northeast  Level FlightAware Approximate
08:57PM 10.5812 -67.0100 54° Northeast  Level FlightAware Approximate
08:58PM 10.6791 -66.9093 43° Northeast  Level FlightAware Approximate
08:59PM 10.7818 -66.8130 43° Northeast  Level FlightAware Approximate
09:00PM 10.8846 -66.7167 43° Northeast  Level FlightAware Approximate
09:01PM 10.9873 -66.6202 43° Northeast  Level FlightAware Approximate
09:02PM 11.0900 -66.5238 43° Northeast  Level FlightAware Approximate
09:03PM 11.1927 -66.4272 43° Northeast  Level FlightAware Approximate
09:04PM 11.2954 -66.3306 43° Northeast  Level FlightAware Approximate
09:05PM 11.3980 -66.2339 43° Northeast  Level FlightAware Approximate
09:06PM 11.5005 -66.1371 43° Northeast  Level FlightAware Approximate
09:07PM 11.6031 -66.0403 43° Northeast  Level FlightAware Approximate
09:08PM 11.7056 -65.9434 43° Northeast  Level FlightAware Approximate
09:09PM 11.8081 -65.8464 43° Northeast  Level FlightAware Approximate
09:10PM 11.9105 -65.7493 43° Northeast  Level FlightAware Approximate
09:11PM 12.0129 -65.6522 43° Northeast  Level FlightAware Approximate
09:12PM 12.1153 -65.5550 43° Northeast  Level FlightAware Approximate
09:13PM 12.2176 -65.4577 43° Northeast  Level FlightAware Approximate
09:14PM 12.3199 -65.3604 43° Northeast  Level FlightAware Approximate
09:15PM 12.4222 -65.2629 43° Northeast  Level FlightAware Approximate
09:16PM 12.5245 -65.1654 43° Northeast  Level FlightAware Approximate
09:17PM 12.6267 -65.0678 43° Northeast  Level FlightAware Approximate
09:18PM 12.7288 -64.9702 43° Northeast  Level FlightAware Approximate
09:19PM 12.8310 -64.8724 43° Northeast  Level FlightAware Approximate
09:20PM 12.9331 -64.7746 43° Northeast  Level FlightAware Approximate
09:21PM 13.0351 -64.6767 43° Northeast  Level FlightAware Approximate
09:22PM 13.1372 -64.5787 43° Northeast  Level FlightAware Approximate
09:23PM 13.2392 -64.4807 43° Northeast  Level FlightAware Approximate
09:24PM 13.3411 -64.3825 43° Northeast  Level FlightAware Approximate
09:25PM 13.4430 -64.2843 43° Northeast  Level FlightAware Approximate
09:26PM 13.5449 -64.1860 43° Northeast  Level FlightAware Approximate
09:27PM 13.6468 -64.0876 43° Northeast  Level FlightAware Approximate
09:28PM 13.7487 -63.9893 43° Northeast  Level FlightAware Approximate
09:29PM 13.8505 -63.8908 43° Northeast  Level FlightAware Approximate
09:30PM 13.9524 -63.7923 43° Northeast  Level FlightAware Approximate
09:31PM 14.0541 -63.6937 43° Northeast  Level FlightAware Approximate
09:31PM 12.5010 -65.1980 43° Northeast 500 575 35,000  Level FlightAware
09:31PM 12.5570 -65.1450 43° Northeast 502 578 35,000  Level FlightAware
09:32PM 14.1559 -63.5950 43° Northeast  Level FlightAware Approximate
09:32PM 12.6260 -65.0820 42° Northeast 502 578 35,000  Level FlightAware
09:33PM 12.7250 -64.9880 43° Northeast 502 578 35,000  Level FlightAware
09:34PM 12.7830 -64.9340 42° Northeast 502 578 35,000  Level FlightAware
09:34PM 12.8420 -64.8800 42° Northeast 502 578 35,000  Level FlightAware
09:35PM 12.9150 -64.8120 42° Northeast 502 578 35,000  Level FlightAware
09:36PM 13.0230 -64.7050 44° Northeast 505 581 35,000  Level FlightAware
09:36PM 13.0760 -64.6530 44° Northeast 507 583 35,000  Level FlightAware
09:37PM 13.1450 -64.5880 43° Northeast 507 583 35,000  Level FlightAware
09:38PM 13.2140 -64.5210 43° Northeast 507 583 35,000  Level FlightAware
09:39PM 13.2840 -64.4530 43° Northeast 507 583 35,000  Level FlightAware
09:39PM 13.2550 -64.4810 223° Southwest 507 583 35,000  Level FlightAware
09:40PM 13.4490 -64.2940 43° Northeast 507 583 35,000  Level FlightAware
09:41PM 13.5190 -64.2290 42° Northeast 508 585 35,000  Level FlightAware
09:41PM 13.5870 -64.1660 42° Northeast 510 587 35,000  Level FlightAware
09:42PM 13.6420 -64.1150 42° Northeast 510 587 35,000 960 Level FlightAware
09:43PM 13.7260 -64.0330 43° Northeast 507 583 36,300 1,320 Climbing FlightAware
09:43PM 13.8000 -63.9620 43° Northeast 505 581 37,000 480 Climbing FlightAware
09:44PM 13.8690 -63.8940 44° Northeast 505 581 37,000  Level FlightAware
09:45PM 13.9380 -63.8280 43° Northeast 505 581 37,000  Level FlightAware
09:46PM 14.0110 -63.7570 43° Northeast 506 582 37,000  Level FlightAware
09:46PM 14.0850 -63.6850 43° Northeast 507 583 37,000  Level FlightAware
09:47PM 14.1520 -63.6210 43° Northeast 507 583 37,000  Level FlightAware
09:48PM 14.2300 -63.5450 43° Northeast 507 583 37,000  Level FlightAware
09:48PM 14.2990 -63.4780 43° Northeast 504 580 37,000  Level FlightAware
09:49PM 14.3740 -63.4040 44° Northeast 502 578 37,000  Level FlightAware
09:50PM 14.4440 -63.3370 43° Northeast 500 575 37,000  Level FlightAware
09:50PM 14.5190 -63.2630 44° Northeast 502 578 37,000  Level FlightAware
09:51PM 14.5850 -63.1990 43° Northeast 505 581 37,000  Level FlightAware
09:52PM 14.6550 -63.1310 43° Northeast 507 583 37,000  Level FlightAware
09:53PM 14.7330 -63.0540 44° Northeast 509 586 37,000  Level FlightAware
09:53PM 14.8000 -62.9890 43° Northeast 509 586 37,000  Level FlightAware
09:54PM 14.8730 -62.9170 44° Northeast 507 583 37,000  Level FlightAware
09:55PM 14.9440 -62.8480 43° Northeast 507 583 37,000  Level FlightAware
09:56PM 15.0880 -62.7070 43° Northeast 511 588 37,000  Level FlightAware
09:57PM 15.2290 -62.5680 44° Northeast 509 586 37,000  Level FlightAware
09:58PM 15.2960 -62.5030 43° Northeast 510 587 37,000  Level FlightAware
10:00PM 15.5140 -62.2870 44° Northeast 512 589 37,000  Level FlightAware
10:01PM 15.5810 -62.2210 43° Northeast 512 589 37,000  Level FlightAware
10:02PM 15.6670 -62.1350 44° Northeast 508 585 37,000  Level FlightAware
10:02PM 15.6790 -62.1240 41° Northeast 509 586 37,000  Level FlightAware
10:03PM 15.7580 -62.0450 44° Northeast 509 586 37,000  Level FlightAware
10:04PM 15.8720 -61.9320 44° Northeast 512 589 37,000  Level FlightAware
10:04PM 15.9390 -61.8650 44° Northeast 512 589 37,000  Level FlightAware
10:05PM 15.9810 -61.8230 44° Northeast 512 589 37,000  Level FlightAware
10:06PM 16.0700 -61.7340 44° Northeast 513 590 37,000  Level FlightAware
10:07PM 16.1480 -61.6570 43° Northeast 512 589 37,000  Level FlightAware
10:07PM 16.2110 -61.5940 44° Northeast 511 588 37,000  Level FlightAware
10:08PM 16.2880 -61.5190 43° Northeast 506 582 37,000  Level FlightAware
10:09PM 16.3860 -61.4330 40° Northeast 507 583 37,000  Level FlightAware
10:10PM 16.4960 -61.3370 40° Northeast 512 589 37,000  Level FlightAware
10:11PM 16.5940 -61.2510 40° Northeast 512 589 37,000  Level FlightAware
10:12PM 16.6700 -61.1840 40° Northeast 512 589 37,000  Level FlightAware
10:12PM 16.7400 -61.1220 40° Northeast 512 589 37,000  Level FlightAware
10:13PM 16.8170 -61.0540 40° Northeast 511 588 37,000  Level FlightAware
10:14PM 16.8850 -60.9930 41° Northeast 510 587 37,000  Level FlightAware
10:14PM 16.9710 -60.9180 40° Northeast 512 589 37,000  Level FlightAware
10:15PM 17.0550 -60.8440 40° Northeast 515 593 37,000  Level FlightAware
10:16PM 17.1350 -60.7730 40° Northeast 514 592 37,000  Level FlightAware
10:16PM 17.1960 -60.7180 41° Northeast 514 592 37,000  Level FlightAware
10:17PM 17.2710 -60.6520 40° Northeast 512 589 37,000  Level FlightAware
10:18PM 17.3630 -60.5700 40° Northeast 510 587 37,000  Level FlightAware
10:19PM 17.4340 -60.5060 41° Northeast 512 589 37,000  Level FlightAware
10:19PM 17.4980 -60.4490 40° Northeast 511 588 37,000  Level FlightAware
10:20PM 17.5730 -60.3830 40° Northeast 511 588 37,000  Level FlightAware
10:21PM 17.6680 -60.2970 41° Northeast 510 587 37,000  Level FlightAware
10:22PM 17.7510 -60.2030 47° Northeast 515 593 37,000  Level FlightAware
10:22PM 17.8130 -60.1250 50° Northeast 514 592 37,000  Level FlightAware
10:23PM 17.9000 -60.1000 44° Northeast 521 600 37,000  Level New York Oceanic (ODAPS)
10:23PM 17.8800 -60.0540 45° Northeast 513 590 37,000  Level FlightAware
10:24PM 18.0000 -59.9833 66° East 513 590 37,000  Level New York Oceanic (ODAPS)
10:24PM 17.9530 -59.9700 48° Northeast 516 594 37,000  Level FlightAware
10:25PM 18.0190 -59.8610 58° Northeast 518 596 37,000  Level FlightAware
10:25PM 18.0630 -59.7730 62° Northeast 518 596 37,000  Level FlightAware
10:26PM 18.1020 -59.6980 61° Northeast 518 596 37,000  Level FlightAware
10:27PM 18.1400 -59.6220 62° Northeast 518 596 37,000  Level FlightAware
10:28PM 18.1880 -59.5270 62° Northeast 518 596 37,000  Level FlightAware
10:29PM 18.2857 -59.3127 66° East 521 600 37,000  Level FlightAware Transoceanic
10:30PM 18.3425 -59.1610 66° East 513 590 37,000  Level FlightAware Transoceanic
10:30PM 18.3020 -59.3000 66° East 518 596 37,000  Level FlightAware
10:30PM 18.3410 -59.2240 62° Northeast 518 596 37,000  Level FlightAware
10:31PM 18.3880 -59.1300 62° Northeast 518 596 37,000  Level FlightAware
10:32PM 18.4270 -59.0540 62° Northeast 518 596 37,000  Level FlightAware
10:32PM 18.4650 -58.9780 62° Northeast 518 596 37,000  Level FlightAware
10:33PM 18.5030 -58.9020 62° Northeast 518 596 37,000  Level FlightAware
10:34PM 18.5410 -58.8260 62° Northeast 518 596 37,000  Level FlightAware
10:35PM 18.5890 -58.7310 62° Northeast 518 596 37,000  Level FlightAware
10:37PM 18.7568 -58.4989 67° East  Level Estimated
10:38PM 18.8036 -58.3589 71° East  Level FlightAware Approximate
10:39PM 18.8502 -58.2187 71° East  Level FlightAware Approximate
10:40PM 18.8968 -58.0785 71° East  Level FlightAware Approximate
10:41PM 18.9433 -57.9382 71° East  Level FlightAware Approximate
10:42PM 18.9896 -57.7978 71° East  Level FlightAware Approximate
10:43PM 19.0359 -57.6573 71° East  Level FlightAware Approximate
10:43PM 19.1167 -57.2833 67° East 506 582 37,000  Level New York Oceanic (ODAPS)
10:44PM 19.0820 -57.5168 71° East  Level FlightAware Approximate
10:45PM 19.1281 -57.3762 71° East  Level FlightAware Approximate
10:46PM 19.1740 -57.2355 71° East  Level FlightAware Approximate
10:47PM 19.2198 -57.0947 71° East  Level FlightAware Approximate
10:48PM 19.2655 -56.9539 71° East  Level FlightAware Approximate
10:49PM 19.4317 -56.4803 68° East 506 582 37,000  Level FlightAware Transoceanic
10:50PM 19.4839 -56.3462 68° East 506 582 37,000  Level FlightAware Transoceanic
10:51PM 19.5359 -56.2119 68° East 506 582 37,000  Level FlightAware Transoceanic
10:52PM 19.5879 -56.0776 68° East 506 582 37,000  Level FlightAware Transoceanic
10:53PM 19.6398 -55.9432 68° East 506 582 37,000  Level FlightAware Transoceanic
10:54PM 19.6915 -55.8087 68° East 506 582 37,000  Level FlightAware Transoceanic
10:55PM 19.7432 -55.6742 68° East 506 582 37,000  Level FlightAware Transoceanic
10:56PM 19.7948 -55.5395 68° East 506 582 37,000  Level FlightAware Transoceanic
10:57PM 19.8462 -55.4048 68° East 506 582 37,000  Level FlightAware Transoceanic
10:58PM 19.8976 -55.2699 68° East 506 582 37,000  Level FlightAware Transoceanic
10:59PM 19.9488 -55.1350 68° East 506 582 37,000  Level FlightAware Transoceanic
10:59PM 20.0000 -55.0000 56° Northeast 519 597 37,000  Level New York Oceanic (ODAPS)
11:00PM 20.0000 -55.0000 56° Northeast 506 582 37,000  Level FlightAware Transoceanic
11:01PM 20.0787 -54.8743 56° Northeast 506 582 37,000  Level FlightAware Transoceanic
11:02PM 20.1574 -54.7485 56° Northeast 506 582 37,000  Level FlightAware Transoceanic
11:03PM 20.2359 -54.6226 56° Northeast 506 582 37,000  Level FlightAware Transoceanic
11:03PM 20.3333 -54.4833 57° Northeast 514 592 37,000  Level New York Oceanic (ODAPS)
11:04PM 20.3144 -54.4965 56° Northeast 506 582 37,000  Level FlightAware Transoceanic
11:05PM 20.4710 -54.2440 57° Northeast 519 597 37,000  Level FlightAware Transoceanic
11:06PM 20.5492 -54.1175 57° Northeast 519 597 37,000  Level FlightAware Transoceanic
11:07PM 20.6273 -53.9910 57° Northeast 519 597 37,000  Level FlightAware Transoceanic
11:08PM 20.7053 -53.8642 57° Northeast 519 597 37,000  Level FlightAware Transoceanic
11:09PM 20.7989 -53.7264 57° Northeast 514 592 37,000  Level FlightAware Transoceanic
11:10PM 20.8761 -53.5998 57° Northeast 514 592 37,000  Level FlightAware Transoceanic
11:11PM 20.9533 -53.4730 57° Northeast 514 592 37,000  Level FlightAware Transoceanic
11:12PM 21.0304 -53.3462 57° Northeast 514 592 37,000  Level FlightAware Transoceanic
11:13PM 21.1074 -53.2192 57° Northeast 514 592 37,000  Level FlightAware Transoceanic
11:14PM 21.1843 -53.0920 57° Northeast 514 592 37,000  Level FlightAware Transoceanic
11:15PM 21.2611 -52.9648 57° Northeast 514 592 37,000  Level FlightAware Transoceanic
11:16PM 21.3378 -52.8374 57° Northeast 514 592 37,000  Level FlightAware Transoceanic
11:17PM 21.4144 -52.7098 57° Northeast 514 592 37,000  Level FlightAware Transoceanic
11:18PM 21.4909 -52.5822 57° Northeast 514 592 37,000  Level FlightAware Transoceanic
11:19PM 21.5673 -52.4544 57° Northeast 514 592 37,000  Level FlightAware Transoceanic
11:20PM 21.6436 -52.3264 57° Northeast 514 592 37,000  Level FlightAware Transoceanic
11:21PM 21.7198 -52.1983 57° Northeast 514 592 37,000  Level FlightAware Transoceanic
11:22PM 21.7959 -52.0701 57° Northeast 514 592 37,000  Level FlightAware Transoceanic
11:23PM 21.8720 -51.9418 57° Northeast 514 592 37,000  Level FlightAware Transoceanic
11:23PM 21.9167 -51.8667 58° Northeast 516 594 37,000  Level New York Oceanic (ODAPS)
11:24PM 21.9479 -51.8133 58° Northeast 514 592 37,000  Level FlightAware Transoceanic
11:25PM 22.0237 -51.6847 58° Northeast 514 592 37,000  Level FlightAware Transoceanic
11:26PM 22.0994 -51.5560 58° Northeast 514 592 37,000  Level FlightAware Transoceanic
11:27PM 22.1750 -51.4271 58° Northeast 514 592 37,000  Level FlightAware Transoceanic
11:28PM 22.2505 -51.2980 58° Northeast 514 592 37,000  Level FlightAware Transoceanic
11:29PM 22.3260 -51.1689 58° Northeast 514 592 37,000  Level FlightAware Transoceanic
11:30PM 22.3836 -51.0702 58° Northeast 516 594 37,000  Level FlightAware Transoceanic
11:31PM 22.4610 -50.9370 58° Northeast 516 594 37,000  Level FlightAware Transoceanic
11:32PM 22.5383 -50.8036 58° Northeast 516 594 37,000  Level FlightAware Transoceanic
11:33PM 22.6156 -50.6700 58° Northeast 516 594 37,000  Level FlightAware Transoceanic
11:34PM 22.6927 -50.5363 58° Northeast 516 594 37,000  Level FlightAware Transoceanic
11:35PM 22.7697 -50.4025 58° Northeast 516 594 37,000  Level FlightAware Transoceanic
11:36PM 22.8466 -50.2685 58° Northeast 516 594 37,000  Level FlightAware Transoceanic
11:37PM 22.9233 -50.1343 58° Northeast 516 594 37,000  Level FlightAware Transoceanic
11:38PM 23.0000 -50.0000 70° East 516 594 37,000  Level FlightAware Transoceanic
11:38PM 23.0000 -50.0000 70° East 531 611 37,000  Level New York Oceanic (ODAPS)
11:39PM 23.0518 -49.8474 70° East 516 594 37,000  Level FlightAware Transoceanic
11:40PM 23.1035 -49.6948 70° East 516 594 37,000  Level FlightAware Transoceanic
11:41PM 23.1549 -49.5420 70° East 516 594 37,000  Level FlightAware Transoceanic
11:42PM 23.2063 -49.3891 70° East 516 594 37,000  Level FlightAware Transoceanic
11:43PM 23.2575 -49.2360 70° East 516 594 37,000  Level FlightAware Transoceanic
11:44PM 23.3039 -49.0970 70° East 531 611 37,000  Level FlightAware Transoceanic
11:44PM 23.3167 -49.0500 70° East 519 597 37,000  Level New York Oceanic (ODAPS)
11:45PM 23.3540 -48.9461 70° East 531 611 37,000  Level FlightAware Transoceanic
11:46PM 23.4040 -48.7951 70° East 531 611 37,000  Level FlightAware Transoceanic
11:47PM 23.4539 -48.6440 70° East 531 611 37,000  Level FlightAware Transoceanic
11:48PM 23.5036 -48.4928 70° East 531 611 37,000  Level FlightAware Transoceanic
11:49PM 23.5531 -48.3414 70° East 531 611 37,000  Level FlightAware Transoceanic
11:50PM 23.6089 -48.1626 70° East 519 597 37,000  Level FlightAware Transoceanic
11:51PM 23.6571 -48.0143 70° East 519 597 37,000  Level FlightAware Transoceanic
11:52PM 23.7052 -47.8659 71° East 519 597 37,000  Level FlightAware Transoceanic
11:53PM 23.7531 -47.7174 71° East 519 597 37,000  Level FlightAware Transoceanic
11:54PM 23.8009 -47.5688 71° East 519 597 37,000  Level FlightAware Transoceanic
11:55PM 23.8486 -47.4201 71° East 519 597 37,000  Level FlightAware Transoceanic
11:56PM 23.8960 -47.2713 71° East 519 597 37,000  Level FlightAware Transoceanic
11:57PM 23.9434 -47.1223 71° East 519 597 37,000  Level FlightAware Transoceanic
11:58PM 23.9906 -46.9733 71° East 519 597 37,000  Level FlightAware Transoceanic
11:59PM 24.0377 -46.8242 71° East 519 597 37,000  Level FlightAware Transoceanic
12:00AM 24.0846 -46.6749 71° East 519 597 37,000  Level FlightAware Transoceanic
12:01AM 24.1314 -46.5255 71° East 519 597 37,000  Level FlightAware Transoceanic
12:02AM 24.1780 -46.3760 71° East 519 597 37,000  Level FlightAware Transoceanic
12:03AM 24.2245 -46.2264 71° East 519 597 37,000  Level FlightAware Transoceanic
12:04AM 24.2709 -46.0767 71° East 519 597 37,000  Level FlightAware Transoceanic
12:04AM 24.3000 -45.9833 71° East 521 600 37,000  Level New York Oceanic (ODAPS)
12:05AM 24.3171 -45.9269 71° East 519 597 37,000  Level FlightAware Transoceanic
12:06AM 24.3631 -45.7770 71° East 519 597 37,000  Level FlightAware Transoceanic
12:07AM 24.4090 -45.6270 71° East 519 597 37,000  Level FlightAware Transoceanic
12:08AM 24.4548 -45.4768 72° East 519 597 37,000  Level FlightAware Transoceanic
12:09AM 24.5004 -45.3266 72° East 519 597 37,000  Level FlightAware Transoceanic
12:10AM 24.5702 -45.0965 72° East 521 600 37,000  Level FlightAware Transoceanic
12:11AM 24.6147 -44.9483 72° East 521 600 37,000  Level FlightAware Transoceanic
12:12AM 24.6590 -44.8001 72° East 521 600 37,000  Level FlightAware Transoceanic
12:13AM 24.7033 -44.6517 72° East 521 600 37,000  Level FlightAware Transoceanic
12:14AM 24.7474 -44.5032 72° East 521 600 37,000  Level FlightAware Transoceanic
12:15AM 24.7913 -44.3546 72° East 521 600 37,000  Level FlightAware Transoceanic
12:16AM 24.8351 -44.2059 72° East 521 600 37,000  Level FlightAware Transoceanic
12:17AM 24.8787 -44.0571 72° East 521 600 37,000  Level FlightAware Transoceanic
12:18AM 24.9222 -43.9082 72° East 521 600 37,000  Level FlightAware Transoceanic
12:19AM 24.9656 -43.7592 72° East 521 600 37,000  Level FlightAware Transoceanic
12:20AM 25.0088 -43.6101 72° East 521 600 37,000  Level FlightAware Transoceanic
12:21AM 25.0518 -43.4608 72° East 521 600 37,000  Level FlightAware Transoceanic
12:22AM 25.0947 -43.3115 72° East 521 600 37,000  Level FlightAware Transoceanic
12:23AM 25.1375 -43.1621 72° East 521 600 37,000  Level FlightAware Transoceanic
12:24AM 25.1801 -43.0125 73° East 521 600 37,000  Level FlightAware Transoceanic
12:24AM 25.2333 -42.8167 73° East 549 632 37,000  Level New York Oceanic (ODAPS)
12:25AM 25.2225 -42.8629 73° East 521 600 37,000  Level FlightAware Transoceanic
12:26AM 25.2648 -42.7131 73° East 521 600 37,000  Level FlightAware Transoceanic
12:27AM 25.3070 -42.5633 73° East 521 600 37,000  Level FlightAware Transoceanic
12:28AM 25.3490 -42.4133 73° East 521 600 37,000  Level FlightAware Transoceanic
12:29AM 25.3908 -42.2633 73° East 521 600 37,000  Level FlightAware Transoceanic
12:30AM 25.4325 -42.1131 73° East 521 600 37,000  Level FlightAware Transoceanic
12:31AM 25.5101 -41.8267 73° East 549 632 37,000  Level FlightAware Transoceanic
12:32AM 25.5555 -41.6612 73° East 549 632 37,000  Level FlightAware Transoceanic
12:33AM 25.6008 -41.4957 73° East 549 632 37,000  Level FlightAware Transoceanic
12:34AM 25.6459 -41.3300 73° East 549 632 37,000  Level FlightAware Transoceanic
12:35AM 25.6909 -41.1642 73° East 549 632 37,000  Level FlightAware Transoceanic
12:36AM 25.7356 -40.9982 73° East 549 632 37,000  Level FlightAware Transoceanic
12:37AM 25.7801 -40.8322 73° East 549 632 37,000  Level FlightAware Transoceanic
12:38AM 25.8245 -40.6660 74° East 549 632 37,000  Level FlightAware Transoceanic
12:39AM 25.8687 -40.4997 74° East 549 632 37,000  Level FlightAware Transoceanic
12:40AM 25.9126 -40.3332 74° East 549 632 37,000  Level FlightAware Transoceanic
12:41AM 25.9564 -40.1667 74° East 549 632 37,000  Level FlightAware Transoceanic
12:42AM 26.0000 -40.0000 69° East 549 632 37,000  Level FlightAware Transoceanic
12:43AM 26.0530 -39.8456 69° East 549 632 37,000  Level FlightAware Transoceanic
12:44AM 26.1059 -39.6910 69° East 549 632 37,000  Level FlightAware Transoceanic
12:45AM 26.1586 -39.5363 69° East 549 632 37,000  Level FlightAware Transoceanic
12:46AM 26.2112 -39.3814 69° East 549 632 37,000  Level FlightAware Transoceanic
12:47AM 26.2636 -39.2264 69° East 549 632 37,000  Level FlightAware Transoceanic
12:48AM 26.3158 -39.0713 69° East 549 632 37,000  Level FlightAware Transoceanic
12:49AM 26.3679 -38.9160 70° East 549 632 37,000  Level FlightAware Transoceanic
12:50AM 26.4198 -38.7606 70° East 549 632 37,000  Level FlightAware Transoceanic
12:51AM 26.4715 -38.6051 70° East 549 632 37,000  Level FlightAware Transoceanic
12:52AM 26.5230 -38.4494 70° East 549 632 37,000  Level FlightAware Transoceanic
12:53AM 26.5744 -38.2935 70° East 549 632 37,000  Level FlightAware Transoceanic
12:54AM 26.6256 -38.1376 70° East 549 632 37,000  Level FlightAware Transoceanic
12:55AM 26.6767 -37.9815 70° East 549 632 37,000  Level FlightAware Transoceanic
12:56AM 26.7275 -37.8252 70° East 549 632 37,000  Level FlightAware Transoceanic
12:57AM 26.7782 -37.6688 70° East 549 632 37,000  Level FlightAware Transoceanic
12:58AM 26.8288 -37.5123 70° East 549 632 37,000  Level FlightAware Transoceanic
12:59AM 26.8791 -37.3556 70° East 549 632 37,000  Level FlightAware Transoceanic
01:00AM 26.9293 -37.1988 70° East 549 632 37,000  Level FlightAware Transoceanic
01:01AM 26.9793 -37.0419 70° East 549 632 37,000  Level FlightAware Transoceanic
01:02AM 27.0291 -36.8848 70° East 549 632 37,000  Level FlightAware Transoceanic
01:03AM 27.0788 -36.7276 71° East 549 632 37,000  Level FlightAware Transoceanic
01:04AM 27.1283 -36.5702 71° East 549 632 37,000  Level FlightAware Transoceanic
01:05AM 27.1776 -36.4127 71° East 549 632 37,000  Level FlightAware Transoceanic
01:06AM 27.2267 -36.2551 71° East 549 632 37,000  Level FlightAware Transoceanic
01:07AM 27.2757 -36.0973 71° East 549 632 37,000  Level FlightAware Transoceanic
01:08AM 27.3244 -35.9394 71° East 549 632 37,000  Level FlightAware Transoceanic
01:09AM 27.3731 -35.7813 71° East 549 632 37,000  Level FlightAware Transoceanic
01:10AM 27.4215 -35.6231 71° East 549 632 37,000  Level FlightAware Transoceanic
01:11AM 27.4697 -35.4648 71° East 549 632 37,000  Level FlightAware Transoceanic
01:12AM 27.5178 -35.3063 71° East 549 632 37,000  Level FlightAware Transoceanic
01:13AM 27.5657 -35.1477 71° East 549 632 37,000  Level FlightAware Transoceanic
01:14AM 27.6134 -34.9889 71° East 549 632 37,000  Level FlightAware Transoceanic
01:15AM 27.6609 -34.8301 71° East 549 632 37,000  Level FlightAware Transoceanic
01:16AM 27.7083 -34.6710 71° East 549 632 37,000  Level FlightAware Transoceanic
01:17AM 27.7554 -34.5119 72° East 549 632 37,000  Level FlightAware Transoceanic
01:18AM 27.8024 -34.3526 72° East 549 632 37,000  Level FlightAware Transoceanic
01:19AM 27.8492 -34.1931 72° East 549 632 37,000  Level FlightAware Transoceanic
01:20AM 27.8958 -34.0335 72° East 549 632 37,000  Level FlightAware Transoceanic
01:21AM 27.9422 -33.8738 72° East 549 632 37,000  Level FlightAware Transoceanic
01:22AM 27.9885 -33.7140 72° East 549 632 37,000  Level FlightAware Transoceanic
01:23AM 28.0345 -33.5540 72° East 549 632 37,000  Level FlightAware Transoceanic
01:24AM 28.0804 -33.3939 72° East 549 632 37,000  Level FlightAware Transoceanic
01:25AM 28.1261 -33.2336 72° East 549 632 37,000  Level FlightAware Transoceanic
01:26AM 28.1716 -33.0732 72° East 549 632 37,000  Level FlightAware Transoceanic
01:27AM 28.2169 -32.9127 72° East 549 632 37,000  Level FlightAware Transoceanic
01:28AM 28.2620 -32.7520 72° East 549 632 37,000  Level FlightAware Transoceanic
01:29AM 28.3070 -32.5912 72° East 549 632 37,000  Level FlightAware Transoceanic
01:30AM 28.3517 -32.4302 73° East 549 632 37,000  Level FlightAware Transoceanic
01:31AM 28.3963 -32.2692 73° East 549 632 37,000  Level FlightAware Transoceanic
01:32AM 28.4407 -32.1080 73° East 549 632 37,000  Level FlightAware Transoceanic
01:33AM 28.4848 -31.9466 73° East 549 632 37,000  Level FlightAware Transoceanic
01:34AM 28.5288 -31.7851 73° East 549 632 37,000  Level FlightAware Transoceanic
01:35AM 28.5726 -31.6235 73° East 549 632 37,000  Level FlightAware Transoceanic
01:36AM 28.6162 -31.4618 73° East 549 632 37,000  Level FlightAware Transoceanic
01:37AM 28.6597 -31.2999 73° East 549 632 37,000  Level FlightAware Transoceanic
01:38AM 28.7029 -31.1379 73° East 549 632 37,000  Level FlightAware Transoceanic
01:39AM 28.7459 -30.9757 73° East 549 632 37,000  Level FlightAware Transoceanic
01:40AM 28.7887 -30.8134 73° East 549 632 37,000  Level FlightAware Transoceanic
01:41AM 28.8314 -30.6510 73° East 549 632 37,000  Level FlightAware Transoceanic
01:42AM 28.8738 -30.4884 73° East 549 632 37,000  Level FlightAware Transoceanic
01:43AM 28.9161 -30.3258 74° East 549 632 37,000  Level FlightAware Transoceanic
01:44AM 28.9581 -30.1630 74° East 549 632 37,000 -60 Level FlightAware Transoceanic
01:45AM 28.9978 -30.0087 74° East  Level FlightAware Approximate
01:46AM 29.0371 -29.8543 74° East  Level FlightAware Approximate
01:47AM 29.0678 -29.8802 57° Northeast  Level FlightAware Approximate
01:48AM 29.1440 -29.7450 57° Northeast  Level FlightAware Approximate
01:49AM 29.2202 -29.6096 57° Northeast  Level FlightAware Approximate
01:50AM 29.2962 -29.4740 57° Northeast  Level FlightAware Approximate
01:51AM 29.3720 -29.3381 57° Northeast  Level FlightAware Approximate
01:52AM 29.4478 -29.2021 57° Northeast  Level FlightAware Approximate
01:53AM 29.5233 -29.0659 57° Northeast  Level FlightAware Approximate
01:54AM 29.5988 -28.9295 58° Northeast  Level FlightAware Approximate
01:55AM 29.6741 -28.7928 58° Northeast  Level FlightAware Approximate
01:56AM 29.7492 -28.6560 58° Northeast  Level FlightAware Approximate
01:57AM 29.8242 -28.5189 58° Northeast  Level FlightAware Approximate
01:58AM 29.8991 -28.3817 58° Northeast  Level FlightAware Approximate
01:59AM 29.9739 -28.2442 58° Northeast  Level FlightAware Approximate
02:00AM 30.0485 -28.1066 58° Northeast  Level FlightAware Approximate
02:01AM 30.1229 -27.9687 58° Northeast  Level FlightAware Approximate
02:02AM 30.1972 -27.8306 58° Northeast  Level FlightAware Approximate
02:03AM 30.2714 -27.6923 58° Northeast  Level FlightAware Approximate
02:04AM 30.3454 -27.5539 58° Northeast  Level FlightAware Approximate
02:05AM 30.4193 -27.4151 58° Northeast  Level FlightAware Approximate
02:06AM 30.4930 -27.2762 58° Northeast  Level FlightAware Approximate
02:07AM 30.5666 -27.1371 58° Northeast  Level FlightAware Approximate
02:08AM 30.6400 -26.9978 58° Northeast  Level FlightAware Approximate
02:09AM 30.7133 -26.8582 59° Northeast  Level FlightAware Approximate
02:10AM 30.7864 -26.7185 59° Northeast  Level FlightAware Approximate
02:11AM 30.8594 -26.5785 59° Northeast  Level FlightAware Approximate
02:12AM 30.9322 -26.4383 59° Northeast  Level FlightAware Approximate
02:13AM 31.0049 -26.2979 59° Northeast  Level FlightAware Approximate
02:14AM 31.0774 -26.1573 59° Northeast  Level FlightAware Approximate
02:15AM 31.1498 -26.0165 59° Northeast  Level FlightAware Approximate
02:16AM 31.2220 -25.8754 59° Northeast  Level FlightAware Approximate
02:17AM 31.2941 -25.7342 59° Northeast  Level FlightAware Approximate
02:18AM 31.3660 -25.5927 59° Northeast  Level FlightAware Approximate
02:19AM 31.4378 -25.4510 59° Northeast  Level FlightAware Approximate
02:20AM 31.5094 -25.3091 59° Northeast  Level FlightAware Approximate
02:21AM 31.5808 -25.1670 59° Northeast  Level FlightAware Approximate
02:22AM 31.6521 -25.0247 60° Northeast  Level FlightAware Approximate
02:23AM 31.7232 -24.8821 60° Northeast  Level FlightAware Approximate
02:24AM 31.7942 -24.7393 60° Northeast  Level FlightAware Approximate
02:25AM 31.8650 -24.5963 60° Northeast  Level FlightAware Approximate
02:26AM 31.9357 -24.4531 60° Northeast  Level FlightAware Approximate
02:27AM 32.0062 -24.3097 60° Northeast  Level FlightAware Approximate
02:28AM 32.0765 -24.1660 60° Northeast  Level FlightAware Approximate
02:29AM 32.1466 -24.0221 60° Northeast  Level FlightAware Approximate
02:30AM 32.2166 -23.8780 60° Northeast  Level FlightAware Approximate
02:31AM 32.2865 -23.7337 60° Northeast  Level FlightAware Approximate
02:32AM 32.3562 -23.5891 60° Northeast  Level FlightAware Approximate
02:33AM 32.4257 -23.4444 60° Northeast  Level FlightAware Approximate
02:34AM 32.4950 -23.2994 60° Northeast  Level FlightAware Approximate
02:35AM 32.5642 -23.1542 60° Northeast  Level FlightAware Approximate
02:36AM 32.6332 -23.0087 61° Northeast  Level FlightAware Approximate
02:37AM 32.7020 -22.8631 61° Northeast  Level FlightAware Approximate
02:38AM 32.7707 -22.7172 61° Northeast  Level FlightAware Approximate
02:39AM 32.8392 -22.5711 61° Northeast  Level FlightAware Approximate
02:40AM 32.9075 -22.4247 61° Northeast  Level FlightAware Approximate
02:41AM 32.9757 -22.2782 61° Northeast  Level FlightAware Approximate
02:42AM 33.0437 -22.1314 61° Northeast  Level FlightAware Approximate
02:43AM 33.1115 -21.9844 61° Northeast  Level FlightAware Approximate
02:44AM 33.1792 -21.8371 61° Northeast  Level FlightAware Approximate
02:45AM 33.2466 -21.6897 61° Northeast  Level FlightAware Approximate
02:46AM 33.3139 -21.5420 61° Northeast  Level FlightAware Approximate
02:47AM 33.3811 -21.3941 61° Northeast  Level FlightAware Approximate
02:48AM 33.4480 -21.2459 62° Northeast  Level FlightAware Approximate
02:49AM 33.5148 -21.0975 62° Northeast  Level FlightAware Approximate
02:50AM 33.5814 -20.9489 62° Northeast  Level FlightAware Approximate
02:51AM 33.6478 -20.8001 62° Northeast  Level FlightAware Approximate
02:52AM 33.7140 -20.6510 62° Northeast  Level FlightAware Approximate
02:53AM 33.7801 -20.5017 62° Northeast  Level FlightAware Approximate
02:54AM 33.8460 -20.3522 62° Northeast  Level FlightAware Approximate
02:55AM 33.9117 -20.2024 62° Northeast  Level FlightAware Approximate
02:56AM 33.9772 -20.0524 62° Northeast  Level FlightAware Approximate
02:57AM 34.0418 -19.9018 63° Northeast  Level FlightAware Approximate
02:58AM 34.1058 -19.7506 63° Northeast  Level FlightAware Approximate
02:59AM 34.1696 -19.5992 63° Northeast  Level FlightAware Approximate
03:00AM 34.2332 -19.4476 63° Northeast  Level FlightAware Approximate
03:01AM 34.2967 -19.2957 63° Northeast  Level FlightAware Approximate
03:02AM 34.3600 -19.1437 63° Northeast  Level FlightAware Approximate
03:03AM 34.4230 -18.9914 63° Northeast  Level FlightAware Approximate
03:04AM 34.4859 -18.8388 63° Northeast  Level FlightAware Approximate
03:05AM 34.5486 -18.6861 63° Northeast  Level FlightAware Approximate
03:06AM 34.6111 -18.5331 64° Northeast  Level FlightAware Approximate
03:07AM 34.6735 -18.3798 64° Northeast  Level FlightAware Approximate
03:08AM 34.7356 -18.2264 64° Northeast  Level FlightAware Approximate
03:09AM 34.7975 -18.0727 64° Northeast  Level FlightAware Approximate
03:10AM 34.8592 -17.9188 64° Northeast  Level FlightAware Approximate
03:11AM 34.9208 -17.7646 64° Northeast  Level FlightAware Approximate
03:12AM 34.9821 -17.6102 64° Northeast  Level FlightAware Approximate
03:13AM 35.0433 -17.4556 64° Northeast  Level FlightAware Approximate
03:14AM 35.1042 -17.3008 64° Northeast  Level FlightAware Approximate
03:15AM 35.1650 -17.1457 64° Northeast  Level FlightAware Approximate
03:16AM 35.2256 -16.9904 64° Northeast  Level FlightAware Approximate
03:17AM 35.2859 -16.8349 65° Northeast  Level FlightAware Approximate
03:18AM 35.3461 -16.6791 65° Northeast  Level FlightAware Approximate
03:19AM 35.4060 -16.5231 65° Northeast  Level FlightAware Approximate
03:20AM 35.4658 -16.3669 65° Northeast  Level FlightAware Approximate
03:21AM 35.5270 -16.2115 60° Northeast  Level FlightAware Approximate
03:22AM 35.5973 -16.0618 60° Northeast  Level FlightAware Approximate
03:23AM 35.6674 -15.9118 60° Northeast  Level FlightAware Approximate
03:24AM 35.7373 -15.7616 60° Northeast  Level FlightAware Approximate
03:25AM 35.8071 -15.6111 60° Northeast  Level FlightAware Approximate
03:26AM 35.8767 -15.4603 60° Northeast  Level FlightAware Approximate
03:27AM 35.9460 -15.3093 60° Northeast  Level FlightAware Approximate
03:28AM 36.0152 -15.1580 60° Northeast  Level FlightAware Approximate
03:29AM 36.0842 -15.0065 61° Northeast  Level FlightAware Approximate
03:30AM 36.1530 -14.8546 61° Northeast  Level FlightAware Approximate
03:31AM 36.2217 -14.7026 61° Northeast  Level FlightAware Approximate
03:32AM 36.2901 -14.5502 61° Northeast  Level FlightAware Approximate
03:33AM 36.3583 -14.3976 61° Northeast  Level FlightAware Approximate
03:34AM 36.4263 -14.2447 61° Northeast  Level FlightAware Approximate
03:35AM 36.4942 -14.0915 61° Northeast  Level FlightAware Approximate
03:36AM 36.5618 -13.9381 61° Northeast  Level FlightAware Approximate
03:37AM 36.6293 -13.7844 61° Northeast  Level FlightAware Approximate
03:38AM 36.6965 -13.6305 61° Northeast  Level FlightAware Approximate
03:39AM 36.7636 -13.4762 61° Northeast  Level FlightAware Approximate
03:40AM 36.8304 -13.3217 62° Northeast  Level FlightAware Approximate
03:41AM 36.8971 -13.1670 62° Northeast  Level FlightAware Approximate
03:42AM 36.9635 -13.0119 62° Northeast  Level FlightAware Approximate
03:43AM 37.0298 -12.8566 62° Northeast  Level FlightAware Approximate
03:44AM 37.0958 -12.7010 62° Northeast  Level FlightAware Approximate
03:45AM 37.1617 -12.5452 62° Northeast  Level FlightAware Approximate
03:46AM 37.2280 -12.3896 62° Northeast  Level FlightAware Approximate
03:47AM 37.2941 -12.2336 62° Northeast  Level FlightAware Approximate
03:47AM 37.9290 -10.8010 62° Northeast 569 655 36,000  Level FlightAware
03:48AM 37.3601 -12.0775 62° Northeast  Level FlightAware Approximate
03:48AM 37.9940 -10.6600 60° Northeast 569 655 36,000  Level FlightAware
03:49AM 38.0550 -10.5240 60° Northeast 568 654 36,000  Level FlightAware
03:50AM 38.1270 -10.3650 60° Northeast 567 652 36,000  Level FlightAware
03:51AM 38.1780 -10.2520 60° Northeast 568 654 36,000  Level FlightAware
03:51AM 38.2270 -10.1410 61° Northeast 569 655 36,000  Level FlightAware
03:52AM 38.2930 -9.9940 60° Northeast 568 654 36,000  Level FlightAware
03:53AM 38.3500 -9.8640 61° Northeast 569 655 36,000  Level FlightAware
03:54AM 38.3980 -9.7550 61° Northeast 568 654 36,000  Level FlightAware
03:54AM 38.4540 -9.6300 60° Northeast 569 655 36,000  Level FlightAware
03:55AM 38.5070 -9.5070 61° Northeast 570 656 36,000  Level FlightAware
03:56AM 38.5650 -9.3750 61° Northeast 572 658 36,000  Level FlightAware
03:56AM 38.6130 -9.2650 61° Northeast 571 657 36,000  Level FlightAware
03:57AM 38.6620 -9.1530 61° Northeast 571 657 36,000  Level FlightAware
03:58AM 38.7120 -9.0350 61° Northeast 570 656 36,000  Level FlightAware
03:58AM 38.7640 -8.9150 61° Northeast 570 656 36,000  Level FlightAware
03:59AM 38.8290 -8.7650 61° Northeast 568 654 36,000  Level FlightAware
04:00AM 38.8840 -8.6350 61° Northeast 569 655 36,000  Level FlightAware
04:01AM 38.9360 -8.5140 61° Northeast 570 656 36,000  Level FlightAware
04:01AM 38.9870 -8.3920 62° Northeast 569 655 36,000  Level FlightAware
04:02AM 39.0420 -8.2610 62° Northeast 564 649 36,000  Level FlightAware
04:03AM 39.0930 -8.1410 61° Northeast 562 647 36,000  Level FlightAware
04:03AM 39.1480 -8.0100 62° Northeast 562 647 36,000  Level FlightAware
04:04AM 39.1980 -7.8880 62° Northeast 561 646 36,000  Level FlightAware
04:05AM 39.2460 -7.7720 62° Northeast 560 644 36,000  Level FlightAware
04:05AM 39.3010 -7.6400 62° Northeast 559 643 36,000  Level FlightAware
04:06AM 39.3510 -7.5180 62° Northeast 559 643 36,000  Level FlightAware
04:07AM 39.4050 -7.3870 62° Northeast 561 646 36,000  Level FlightAware
04:08AM 39.4540 -7.2650 62° Northeast 560 644 36,000  Level FlightAware
04:08AM 39.5020 -7.1490 62° Northeast 560 644 36,000  Level FlightAware
04:09AM 39.5570 -7.0120 62° Northeast 562 647 36,000  Level FlightAware
04:10AM 39.6030 -6.8970 63° Northeast 564 649 36,000  Level FlightAware
04:10AM 39.6520 -6.7760 62° Northeast 566 651 36,000 -240 Level FlightAware
04:11AM 39.7060 -6.6400 63° Northeast 551 634 35,700 -660 Descending FlightAware
04:12AM 39.7530 -6.5200 63° Northeast 551 634 35,100 -1,020 Descending FlightAware
04:12AM 39.7920 -6.3760 71° East 558 642 34,300 -1,020 Descending FlightAware
04:13AM 39.8140 -6.2480 77° East 563 648 33,700 -960 Descending FlightAware
04:14AM 39.8290 -6.0950 83° East 558 642 33,000 -660 Descending FlightAware
04:15AM 39.8400 -5.9680 84° East 530 610 32,800 -1,440 Descending FlightAware
04:15AM 39.8510 -5.8410 84° East 542 624 31,100 -2,280 Descending FlightAware
04:16AM 39.8620 -5.7120 84° East 540 621 29,800 -1,800 Descending FlightAware
04:17AM 39.8740 -5.5680 84° East 527 606 28,600 -1,740 Descending FlightAware
04:17AM 39.8840 -5.4450 84° East 510 587 27,400 -1,800 Descending FlightAware
04:18AM 39.8950 -5.3120 84° East 490 564 26,100 -1,740 Descending FlightAware
04:19AM 39.9040 -5.1960 84° East 490 564 25,000 -1,680 Descending FlightAware
04:19AM 39.9150 -5.0620 84° East 483 556 23,800 -1,680 Descending FlightAware
04:20AM 39.9240 -4.9490 84° East 473 544 22,700 -1,620 Descending FlightAware
04:21AM 39.9320 -4.8400 84° East 462 532 21,700 -1,380 Descending FlightAware
04:22AM 39.9420 -4.7160 84° East 442 509 20,800 -1,200 Descending FlightAware
04:22AM 39.9500 -4.6140 84° East 414 476 20,000 -1,320 Descending FlightAware
04:23AM 39.9560 -4.5230 85° East 401 461 19,100 -1,320 Descending FlightAware
04:24AM 39.9650 -4.4100 84° East 392 451 18,200 -1,320 Descending FlightAware
04:24AM 39.9570 -4.3190 97° East 376 433 17,300 -1,320 Descending FlightAware
04:25AM 39.9120 -4.2460 129° Southeast 352 405 16,400 -1,020 Descending FlightAware
04:26AM 39.8720 -4.1820 129° Southeast 322 371 15,900 -1,020 Descending FlightAware
04:26AM 39.8300 -4.1150 129° Southeast 313 360 15,000 -1,320 Descending FlightAware
04:27AM 39.7990 -4.0510 122° Southeast 316 364 14,100 -1,380 Descending FlightAware
04:28AM 39.8200 -3.9840 68° East 293 337 13,200 -1,740 Descending FlightAware
04:28AM 39.8580 -3.9340 45° Northeast 315 362 11,800 -1,680 Descending FlightAware
04:29AM 39.9020 -3.8680 49° Northeast 316 364 10,900 -1,440 Descending FlightAware
04:30AM 39.9390 -3.8120 49° Northeast 313 360 9,800 -1,680 Descending FlightAware
04:30AM 39.9530 -3.7910 49° Northeast 312 359 9,400 -1,620 Descending FlightAware
04:31AM 39.9820 -3.7470 49° Northeast 301 346 8,600 -1,560 Descending FlightAware
04:31AM 40.0040 -3.7140 49° Northeast 297 342 8,000 -1,320 Descending FlightAware
04:32AM 40.0310 -3.6740 49° Northeast 291 335 7,400 -1,320 Descending FlightAware
04:32AM 40.0570 -3.6340 50° Northeast 288 331 6,700 -1,140 Descending FlightAware
04:32AM 40.0790 -3.6020 48° Northeast 274 315 6,400 -600 Descending FlightAware
04:33AM 40.1040 -3.5660 48° Northeast 257 296 6,200 -600 Descending FlightAware
04:33AM 40.1220 -3.5380 50° Northeast 249 287 5,900 -900 Descending FlightAware
04:34AM 40.1450 -3.5050 48° Northeast 243 280 5,400 -1,080 Descending FlightAware
04:34AM 40.1570 -3.4880 47° Northeast 241 277 5,100 -780 Descending FlightAware
04:35AM 40.1750 -3.4610 49° Northeast 237 273 4,900 -360 Descending FlightAware
04:35AM 40.1970 -3.4300 47° Northeast 239 275 4,800 -180 Descending FlightAware
04:35AM 40.2100 -3.4150 41° Northeast 237 273 4,800  Level FlightAware
04:35AM 40.2210 -3.4120 12° North 235 270 4,800 -300 Level FlightAware
04:36AM 40.2520 -3.4110 North 235 270 4,600 -420 Descending FlightAware
04:36AM 40.2860 -3.4120 359° North 226 260 4,400 -360 Descending FlightAware
04:37AM 40.3070 -3.4130 358° North 216 249 4,300 -300 Descending FlightAware
04:37AM 40.3260 -3.4160 353° North 216 249 4,200 -420 Descending FlightAware
04:37AM 40.3360 -3.4250 326° Northwest 198 228 4,100 -240 Descending FlightAware
04:38AM 40.3480 -3.4370 323° Northwest 196 226 4,100 -180 Level FlightAware
04:38AM 40.3650 -3.4540 323° Northwest 196 226 4,000 -480 Descending FlightAware
04:39AM 40.3860 -3.4760 321° Northwest 172 198 3,700 -780 Descending FlightAware
04:39AM 40.4010 -3.4910 323° Northwest 162 186 3,300 -900 Descending FlightAware
04:39AM 40.4190 -3.5090 323° Northwest 159 183 2,900 -900 Descending FlightAware
04:40AM 40.4360 -3.5260 323° Northwest 153 176 2,400 -900 Descending FlightAware
04:40AM 40.4490 -3.5390 323° Northwest 153 176 2,100 -780 Descending FlightAware
04:41AM 40.4660 -3.5570 321° Northwest 156 180 1,700 -840 Descending FlightAware